createdAt,value
2019-04-10T00:00:00.230Z,100531.61
2019-04-10T00:02:48.166Z,100532.98
2019-04-10T00:05:36.174Z,100528.28
2019-04-10T00:08:22.406Z,100539.73
2019-04-10T00:11:10.246Z,100531.91
2019-04-10T00:13:58.710Z,100533.34
2019-04-10T00:16:45.113Z,100530.83
2019-04-10T00:19:32.906Z,100527.81
2019-04-10T00:22:20.160Z,100523.38
2019-04-10T00:25:06.956Z,100518.70
2019-04-10T00:31:02.841Z,100525.59
2019-04-10T00:33:51.176Z,100528.91
2019-04-10T00:36:37.357Z,100535.60
2019-04-10T00:39:24.481Z,100532.66
2019-04-10T00:42:18.989Z,100531.02
2019-04-10T00:45:06.403Z,100531.28
2019-04-10T00:50:59.800Z,100529.48
2019-04-10T00:53:47.552Z,100525.21
2019-04-10T00:59:40.799Z,100526.28
2019-04-10T01:02:29.073Z,100524.19
2019-04-10T01:08:22.458Z,100526.56
2019-04-10T01:11:10.719Z,100526.77
2019-04-10T01:14:05.396Z,100523.73
2019-04-10T01:16:52.251Z,100520.32
2019-04-10T01:19:40.504Z,100520.70
2019-04-10T01:22:27.560Z,100526.98
2019-04-10T01:31:27.263Z,100522.88
2019-04-10T01:34:29.473Z,100522.52
2019-04-10T01:37:16.661Z,100530.92
2019-04-10T01:40:03.170Z,100528.81
2019-04-10T01:49:03.063Z,100523.12
2019-04-10T01:51:50.309Z,100523.26
2019-04-10T01:57:44.235Z,100525.06
2019-04-10T02:00:34.183Z,100526.50
2019-04-10T02:06:28.139Z,100523.04
2019-04-10T02:12:22.804Z,100525.88
2019-04-10T02:15:14.015Z,100525.05
2019-04-10T02:18:10.921Z,100523.38
2019-04-10T02:20:59.118Z,100515.58
2019-04-10T02:23:46.923Z,100524.29
2019-04-10T02:29:54.094Z,100520.89
2019-04-10T02:32:45.107Z,100518.66
2019-04-10T02:38:57.473Z,100517.83
2019-04-10T02:47:43.259Z,100514.81
2019-04-10T02:50:29.378Z,100515.36
2019-04-10T02:56:23.782Z,100522.95
2019-04-10T03:02:16.213Z,100520.55
2019-04-10T03:05:04.593Z,100522.37
2019-04-10T03:07:50.370Z,100520.69
2019-04-10T03:10:44.142Z,100523.08
2019-04-10T03:13:26.857Z,100525.31
2019-04-10T03:16:27.241Z,100520.25
2019-04-10T03:19:14.531Z,100520.94
2019-04-10T03:22:01.847Z,100519.46
2019-04-10T03:24:50.660Z,100519.63
2019-04-10T03:27:50.757Z,100524.08
2019-04-10T03:30:53.833Z,100522.45
2019-04-10T03:33:44.572Z,100526.50
2019-04-10T03:36:28.029Z,100530.94
2019-04-10T03:42:23.223Z,100527.67
2019-04-10T03:45:09.593Z,100535.52
2019-04-10T03:51:03.986Z,100536.54
2019-04-10T03:53:50.801Z,100531.38
2019-04-10T03:56:52.359Z,100527.95
2019-04-10T03:59:40.717Z,100536.55
2019-04-10T04:02:27.358Z,100538.96
2019-04-10T04:05:13.271Z,100543.45
2019-04-10T04:08:01.303Z,100541.39
2019-04-10T04:11:03.144Z,100539.27
2019-04-10T04:13:50.118Z,100541.52
2019-04-10T04:16:37.335Z,100545.89
2019-04-10T04:19:24.139Z,100547.24
2019-04-10T04:22:25.863Z,100557.27
2019-04-10T04:25:13.086Z,100551.66
2019-04-10T04:28:00.839Z,100549.05
2019-04-10T04:40:06.914Z,100553.03
2019-04-10T04:42:57.890Z,100554.47
2019-04-10T04:45:44.473Z,100564.09
2019-04-10T04:51:37.465Z,100572.41
2019-04-10T04:54:31.696Z,100576.73
2019-04-10T04:57:18.842Z,100578.48
2019-04-10T05:00:07.672Z,100583.67
2019-04-10T05:03:07.842Z,100589.74
2019-04-10T05:12:16.389Z,100597.27
2019-04-10T05:15:02.641Z,100593.19
2019-04-10T05:20:56.693Z,100602.88
2019-04-10T05:23:42.917Z,100596.94
2019-04-10T05:26:30.274Z,100605.12
2019-04-10T05:29:18.226Z,100609.16
2019-04-10T05:32:05.635Z,100610.89
2019-04-10T05:34:53.178Z,100613.48
2019-04-10T05:37:47.785Z,100616.50
2019-04-10T05:40:36.656Z,100613.83
2019-04-10T05:43:24.021Z,100610.72
2019-04-10T05:46:10.669Z,100608.59
2019-04-10T05:55:10.109Z,100625.30
2019-04-10T05:57:59.388Z,100620.80
2019-04-10T06:00:47.117Z,100624.98
2019-04-10T06:06:40.875Z,100625.89
2019-04-10T06:09:51.939Z,100616.66
2019-04-10T06:12:28.604Z,100605.25
2019-04-10T06:15:16.908Z,100603.59
2019-04-10T06:18:03.064Z,100613.06
2019-04-10T06:20:50.428Z,100610.66
2019-04-10T06:26:44.455Z,100621.34
2019-04-10T06:29:35.385Z,100616.59
2019-04-10T06:32:25.519Z,100620.27
2019-04-10T06:35:13.588Z,100616.02
2019-04-10T06:37:59.747Z,100620.76
2019-04-10T06:40:46.582Z,100616.83
2019-04-10T06:46:41.708Z,100619.84
2019-04-10T06:49:29.137Z,100621.83
2019-04-10T06:52:16.596Z,100624.63
2019-04-10T06:55:03.106Z,100617.75
2019-04-10T06:57:55.047Z,100620.86
2019-04-10T07:00:38.953Z,100622.20
2019-04-10T07:03:45.077Z,100625.27
2019-04-10T07:06:19.864Z,100621.16
2019-04-10T07:09:01.646Z,100621.62
2019-04-10T07:14:58.111Z,100616.05
2019-04-10T07:17:43.556Z,100614.89
2019-04-10T07:20:31.564Z,100612.28
2019-04-10T07:23:23.397Z,100616.34
2019-04-10T07:26:04.374Z,100615.05
2019-04-10T07:28:51.913Z,100617.09
2019-04-10T07:31:39.942Z,100617.95
2019-04-10T07:34:29.799Z,100615.02
2019-04-10T07:37:17.518Z,100615.56
2019-04-10T07:40:04.085Z,100613.34
2019-04-10T07:42:50.421Z,100619.23
2019-04-10T07:45:36.972Z,100619.59
2019-04-10T07:48:25.121Z,100627.73
2019-04-10T07:51:11.304Z,100629.23
2019-04-10T07:53:58.107Z,100632.40
2019-04-10T07:56:45.567Z,100634.11
2019-04-10T07:59:33.406Z,100626.02
2019-04-10T08:02:19.734Z,100622.51
2019-04-10T08:05:08.058Z,100630.69
2019-04-10T08:07:55.953Z,100630.84
2019-04-10T08:10:43.674Z,100633.05
2019-04-10T08:13:28.920Z,100638.51
2019-04-10T08:16:17.032Z,100630.88
2019-04-10T08:19:04.030Z,100636.73
2019-04-10T08:21:50.839Z,100636.38
2019-04-10T08:24:40.769Z,100645.00
2019-04-10T08:27:27.987Z,100642.06
2019-04-10T08:30:15.417Z,100641.20
2019-04-10T08:33:04.449Z,100647.80
2019-04-10T08:35:50.567Z,100644.52
2019-04-10T08:38:38.064Z,100642.63
2019-04-10T08:41:26.838Z,100637.84
2019-04-10T08:44:13.537Z,100638.13
2019-04-10T08:47:00.105Z,100638.06
2019-04-10T08:49:47.475Z,100642.04
2019-04-10T08:55:42.031Z,100644.55
2019-04-10T08:58:29.283Z,100640.83
2019-04-10T09:01:23.596Z,100633.94
2019-04-10T09:04:12.506Z,100640.50
2019-04-10T09:07:01.396Z,100636.88
2019-04-10T09:09:46.046Z,100635.09
2019-04-10T09:12:33.648Z,100638.64
2019-04-10T09:15:19.567Z,100636.75
2019-04-10T09:18:08.151Z,100633.10
2019-04-10T09:20:55.092Z,100629.23
2019-04-10T09:23:47.347Z,100625.05
2019-04-10T09:26:28.768Z,100626.36
2019-04-10T09:29:16.100Z,100631.67
2019-04-10T09:32:04.395Z,100629.48
2019-04-10T09:34:50.384Z,100623.91
2019-04-10T09:37:38.160Z,100623.52
2019-04-10T09:40:40.257Z,100624.34
2019-04-10T09:43:26.372Z,100626.68
2019-04-10T09:46:13.531Z,100631.54
2019-04-10T09:49:00.544Z,100622.11
2019-04-10T09:51:48.185Z,100620.02
2019-04-10T09:54:34.957Z,100619.19
2019-04-10T09:57:22.480Z,100617.05
2019-04-10T10:00:10.456Z,100621.28
2019-04-10T10:02:55.805Z,100623.41
2019-04-10T10:05:44.599Z,100617.79
2019-04-10T10:08:31.440Z,100619.67
2019-04-10T10:11:18.069Z,100622.91
2019-04-10T10:14:04.324Z,100624.38
2019-04-10T10:16:52.697Z,100610.48
2019-04-10T10:19:40.627Z,100615.18
2019-04-10T10:22:27.396Z,100612.30
2019-04-10T10:25:15.226Z,100612.53
2019-04-10T10:28:01.476Z,100610.44
2019-04-10T10:30:49.519Z,100612.30
2019-04-10T10:33:52.201Z,100609.43
2019-04-10T10:36:41.923Z,100606.11
2019-04-10T10:39:26.543Z,100613.02
2019-04-10T10:42:13.740Z,100603.05
2019-04-10T10:48:08.601Z,100612.38
2019-04-10T10:50:56.214Z,100598.23
2019-04-10T10:53:42.387Z,100599.15
2019-04-10T10:56:30.598Z,100603.49
2019-04-10T10:59:17.519Z,100601.93
2019-04-10T11:02:04.352Z,100597.70
2019-04-10T11:04:51.700Z,100599.30
2019-04-10T11:07:38.852Z,100591.59
2019-04-10T11:10:27.631Z,100592.25
2019-04-10T11:13:15.023Z,100591.73
2019-04-10T11:16:03.952Z,100586.45
2019-04-10T11:18:48.458Z,100601.85
2019-04-10T11:21:34.705Z,100595.41
2019-04-10T11:24:22.827Z,100592.46
2019-04-10T11:30:16.220Z,100592.13
2019-04-10T11:33:04.047Z,100595.58
2019-04-10T11:35:51.530Z,100596.66
2019-04-10T11:38:39.688Z,100602.44
2019-04-10T11:41:26.228Z,100598.06
2019-04-10T11:44:14.399Z,100595.69
2019-04-10T11:47:00.468Z,100598.80
2019-04-10T11:49:49.576Z,100596.87
2019-04-10T11:55:46.719Z,100597.02
2019-04-10T11:58:29.117Z,100595.48
2019-04-10T12:01:17.560Z,100595.27
2019-04-10T12:04:06.750Z,100590.73
2019-04-10T12:06:54.046Z,100597.15
2019-04-10T12:12:25.835Z,100601.48
2019-04-10T12:15:12.299Z,100603.91
2019-04-10T12:17:59.025Z,100586.15
2019-04-10T12:20:46.338Z,100598.30
2019-04-10T12:26:40.196Z,100603.85
2019-04-10T12:32:34.718Z,100602.69
2019-04-10T12:35:22.621Z,100607.20
2019-04-10T12:41:17.213Z,100603.20
2019-04-10T12:44:03.261Z,100606.58
2019-04-10T12:46:51.178Z,100587.73
2019-04-10T12:49:52.159Z,100587.05
2019-04-10T12:52:40.966Z,100590.91
2019-04-10T12:55:28.326Z,100585.86
2019-04-10T12:58:17.668Z,100594.00
2019-04-10T13:01:04.476Z,100591.86
2019-04-10T13:03:50.186Z,100588.34
2019-04-10T13:06:52.725Z,100602.23
2019-04-10T13:09:53.963Z,100590.48
2019-04-10T13:12:43.183Z,100596.81
2019-04-10T13:15:31.768Z,100584.22
2019-04-10T13:18:18.480Z,100592.27
2019-04-10T13:21:05.017Z,100590.30
2019-04-10T13:23:53.047Z,100590.97
2019-04-10T13:26:41.902Z,100588.42
2019-04-10T13:29:36.380Z,100593.67
2019-04-10T13:32:23.398Z,100593.31
2019-04-10T13:35:10.201Z,100593.26
2019-04-10T13:37:56.900Z,100601.19
2019-04-10T13:40:43.830Z,100590.34
2019-04-10T13:43:30.988Z,100587.91
2019-04-10T13:46:18.493Z,100584.42
2019-04-10T13:49:06.041Z,100583.63
2019-04-10T13:51:51.947Z,100589.63
2019-04-10T13:54:40.884Z,100579.43
2019-04-10T13:57:27.045Z,100588.42
2019-04-10T14:00:14.350Z,100582.22
2019-04-10T14:03:01.950Z,100598.81
2019-04-10T14:05:49.747Z,100590.09
2019-04-10T14:09:01.808Z,100586.95
2019-04-10T14:14:31.002Z,100583.78
2019-04-10T14:17:19.508Z,100590.55
2019-04-10T14:20:05.351Z,100587.70
2019-04-10T14:23:10.481Z,100591.22
2019-04-10T14:29:30.237Z,100587.70
2019-04-10T14:32:17.504Z,100588.19
2019-04-10T14:35:05.245Z,100590.22
2019-04-10T14:37:52.713Z,100592.41
2019-04-10T14:40:40.130Z,100589.22
2019-04-10T14:43:28.439Z,100591.95
2019-04-10T14:46:14.713Z,100595.49
2019-04-10T14:49:02.823Z,100599.96
2019-04-10T14:51:49.614Z,100592.40
2019-04-10T14:54:37.656Z,100591.47
2019-04-10T14:57:24.541Z,100586.03
2019-04-10T15:00:18.111Z,100599.52
2019-04-10T15:03:12.648Z,100595.03
2019-04-10T15:06:01.379Z,100593.78
2019-04-10T15:08:48.785Z,100600.63
2019-04-10T15:11:48.962Z,100595.83
2019-04-10T15:14:35.940Z,100602.45
2019-04-10T15:17:23.104Z,100608.92
2019-04-10T15:20:11.081Z,100610.07
2019-04-10T15:22:56.784Z,100604.48
2019-04-10T15:25:43.982Z,100613.55
2019-04-10T15:28:31.904Z,100613.42
2019-04-10T15:31:19.966Z,100605.98
2019-04-10T15:34:14.676Z,100618.60
2019-04-10T15:37:01.569Z,100610.24
2019-04-10T15:39:49.696Z,100613.15
2019-04-10T15:42:37.808Z,100613.11
2019-04-10T15:45:26.027Z,100608.31
2019-04-10T15:48:13.484Z,100614.16
2019-04-10T15:51:00.261Z,100603.13
2019-04-10T15:53:47.318Z,100604.12
2019-04-10T15:56:34.749Z,100608.62
2019-04-10T16:02:28.550Z,100608.00
2019-04-10T16:05:15.892Z,100617.46
2019-04-10T16:08:03.118Z,100607.41
2019-04-10T16:11:05.523Z,100615.20
2019-04-10T16:14:16.963Z,100611.05
2019-04-10T16:16:59.165Z,100615.38
2019-04-10T16:19:51.924Z,100613.41
2019-04-10T16:22:40.542Z,100619.94
2019-04-10T16:25:30.101Z,100619.02
2019-04-10T16:28:18.035Z,100618.36
2019-04-10T16:31:08.368Z,100619.33
2019-04-10T16:33:58.896Z,100623.77
2019-04-10T16:36:50.110Z,100629.87
2019-04-10T16:42:43.611Z,100625.99
2019-04-10T16:45:30.708Z,100628.41
2019-04-10T16:48:18.909Z,100634.06
2019-04-10T16:51:05.152Z,100636.65
2019-04-10T16:53:53.695Z,100633.08
2019-04-10T16:56:40.180Z,100640.63
2019-04-10T17:02:33.892Z,100644.80
2019-04-10T17:05:21.352Z,100642.34
2019-04-10T17:14:23.804Z,100656.36
2019-04-10T17:17:10.658Z,100654.30
2019-04-10T17:19:58.998Z,100663.96
2019-04-10T17:22:47.706Z,100666.14
2019-04-10T17:25:32.111Z,100670.20
2019-04-10T17:28:22.043Z,100674.65
2019-04-10T17:31:07.503Z,100676.28
2019-04-10T17:33:54.562Z,100683.14
2019-04-10T17:36:41.109Z,100688.84
2019-04-10T17:39:43.774Z,100698.61
2019-04-10T17:42:30.489Z,100692.58
2019-04-10T17:45:18.534Z,100688.55
2019-04-10T17:48:05.200Z,100699.47
2019-04-10T17:50:55.219Z,100707.07
2019-04-10T17:53:41.869Z,100707.91
2019-04-10T17:56:28.408Z,100707.67
2019-04-10T17:59:16.277Z,100717.97
2019-04-10T18:05:10.899Z,100719.86
2019-04-10T18:07:58.697Z,100724.44
2019-04-10T18:10:49.867Z,100730.96
2019-04-10T18:13:31.918Z,100736.44
2019-04-10T18:16:20.006Z,100738.19
2019-04-10T18:19:06.873Z,100748.43
2019-04-10T18:21:56.389Z,100752.05
2019-04-10T18:24:43.313Z,100758.96
2019-04-10T18:30:37.145Z,100765.41
2019-04-10T18:33:24.545Z,100766.52
2019-04-10T18:36:11.365Z,100772.00
2019-04-10T18:38:59.635Z,100772.19
2019-04-10T18:41:46.567Z,100776.84
2019-04-10T18:44:33.536Z,100780.94
2019-04-10T18:53:45.777Z,100797.08
2019-04-10T18:56:33.460Z,100803.91
2019-04-10T18:59:40.890Z,100808.11
2019-04-10T19:02:37.044Z,100816.73
2019-04-10T19:05:26.050Z,100812.84
2019-04-10T19:08:14.316Z,100815.16
2019-04-10T19:11:15.385Z,100819.45
2019-04-10T19:14:00.709Z,100821.77
2019-04-10T19:16:55.914Z,100821.02
2019-04-10T19:20:02.131Z,100826.59
2019-04-10T19:25:50.942Z,100833.70
2019-04-10T19:31:50.337Z,100847.00
2019-04-10T19:34:37.502Z,100845.88
2019-04-10T19:37:24.923Z,100853.64
2019-04-10T19:40:11.310Z,100847.33
2019-04-10T19:49:12.285Z,100851.27
2019-04-10T19:52:00.163Z,100852.42
2019-04-10T19:54:47.260Z,100855.83
2019-04-10T19:57:34.270Z,100853.02
2019-04-10T20:00:22.148Z,100856.83
2019-04-10T20:03:09.099Z,100858.80
2019-04-10T20:05:57.686Z,100862.88
2019-04-10T20:08:44.500Z,100863.42
2019-04-10T20:11:38.698Z,100868.63
2019-04-10T20:14:20.133Z,100864.66
2019-04-10T20:17:08.152Z,100866.98
2019-04-10T20:19:57.181Z,100870.09
2019-04-10T20:22:44.013Z,100873.84
2019-04-10T20:25:32.505Z,100875.54
2019-04-10T20:28:19.185Z,100882.80
2019-04-10T20:31:07.334Z,100880.61
2019-04-10T20:33:54.763Z,100888.70
2019-04-10T20:36:41.643Z,100884.17
2019-04-10T20:42:34.226Z,100898.80
2019-04-10T20:45:23.148Z,100899.44
2019-04-10T20:48:09.640Z,100900.69
2019-04-10T20:50:57.384Z,100910.64
2019-04-10T20:53:44.284Z,100911.75
2019-04-10T20:56:34.763Z,100917.06
2019-04-10T20:59:21.013Z,100919.77
2019-04-10T21:02:08.223Z,100923.39
2019-04-10T21:08:06.206Z,100926.16
2019-04-10T21:10:53.210Z,100922.48
2019-04-10T21:13:40.636Z,100930.41
2019-04-10T21:16:28.654Z,100924.81
2019-04-10T21:19:16.614Z,100924.16
2019-04-10T21:22:04.338Z,100927.30
2019-04-10T21:27:58.614Z,100930.55
2019-04-10T21:30:46.476Z,100938.53
2019-04-10T21:36:41.579Z,100945.76
2019-04-10T21:39:29.662Z,100942.06
2019-04-10T21:42:22.285Z,100945.18
2019-04-10T21:48:12.603Z,100955.17
2019-04-10T21:51:00.503Z,100958.54
2019-04-10T21:53:47.368Z,100967.34
2019-04-10T21:56:35.158Z,100966.97
2019-04-10T21:59:21.151Z,100969.88
2019-04-10T22:02:08.452Z,100971.06
2019-04-10T22:04:55.981Z,100977.27
2019-04-10T22:07:45.994Z,100978.55
2019-04-10T22:10:46.642Z,100977.91
2019-04-10T22:13:33.441Z,100977.25
2019-04-10T22:16:21.973Z,100973.92
2019-04-10T22:19:08.001Z,100977.16
2019-04-10T22:21:55.792Z,100982.92
2019-04-10T22:24:43.916Z,100987.40
2019-04-10T22:30:37.203Z,100986.77
2019-04-10T22:33:25.017Z,100988.84
2019-04-10T22:36:20.635Z,100988.66
2019-04-10T22:39:06.775Z,100988.86
2019-04-10T22:42:01.160Z,100986.84
2019-04-10T22:44:49.893Z,100995.97
2019-04-10T22:47:36.701Z,101001.45
2019-04-10T22:50:24.463Z,100990.34
2019-04-10T22:53:10.381Z,101000.91
2019-04-10T22:56:04.764Z,101000.17
2019-04-10T22:58:53.201Z,101002.84
2019-04-10T23:01:39.791Z,101006.09
2019-04-10T23:04:26.480Z,101005.89
2019-04-10T23:07:13.582Z,101008.36
2019-04-10T23:10:02.576Z,101003.95
2019-04-10T23:12:57.543Z,101011.27
2019-04-10T23:21:50.920Z,101015.72
2019-04-10T23:24:51.949Z,101019.05
2019-04-10T23:27:38.746Z,101023.69
2019-04-10T23:30:33.020Z,101028.16
2019-04-10T23:33:19.763Z,101028.27
2019-04-10T23:36:07.656Z,101029.20
2019-04-10T23:38:53.949Z,101031.39
2019-04-10T23:41:42.083Z,101035.40
2019-04-10T23:44:33.163Z,101038.81
2019-04-10T23:47:26.332Z,101041.98
2019-04-10T23:50:15.024Z,101044.25
2019-04-10T23:53:00.624Z,101045.57
2019-04-10T23:56:02.204Z,101050.41
2019-04-10T23:58:50.645Z,101050.87
